Time;durP1;ratioP1;P1;durP2;ratioP2;P2;SDS_P1;SDS_P2;PMS_P1;PMS_P2;Temp;Humidity;BMP_temperature;BMP_pressure;BME280_temperature;BME280_humidity;BME280_pressure;Samples;Min_cycle;Max_cycle;Signal;HPM_P1;HPM_P2
2021/07/06 00:01:44;;;;;;;21.05;19.23;;;;;;;19.42;69.42;100084.00;128167;1098;22377;-73
2021/07/06 00:04:14;;;;;;;22.25;19.98;;;;;;;19.38;69.01;100089.02;128167;1098;22385;-73
2021/07/06 00:06:44;;;;;;;20.93;18.88;;;;;;;19.36;68.99;100082.25;128111;1098;24507;-73
2021/07/06 00:09:14;;;;;;;20.13;18.38;;;;;;;19.34;69.55;100079.81;128148;1098;22385;-73
2021/07/06 00:11:44;;;;;;;20.60;18.80;;;;;;;19.31;69.08;100076.79;128209;1098;22468;-73
2021/07/06 00:14:14;;;;;;;19.18;17.38;;;;;;;19.29;69.32;100093.07;128175;1098;22408;-73
2021/07/06 00:16:43;;;;;;;20.03;18.08;;;;;;;19.26;69.10;100094.38;128189;1098;23903;-73
2021/07/06 00:19:13;;;;;;;19.58;17.75;;;;;;;19.25;69.42;100094.59;128211;1098;24262;-74
2021/07/06 00:21:42;;;;;;;20.88;19.00;;;;;;;19.23;69.37;100094.02;128157;1098;22391;-73
2021/07/06 00:24:12;;;;;;;20.18;18.33;;;;;;;19.22;69.63;100087.83;128133;1098;22364;-73
2021/07/06 00:26:41;;;;;;;19.85;18.05;;;;;;;19.21;69.35;100096.09;128139;1098;22398;-73
2021/07/06 00:29:11;;;;;;;21.25;19.30;;;;;;;19.19;69.53;100098.18;128190;1098;23308;-73
2021/07/06 00:31:40;;;;;;;19.40;17.77;;;;;;;19.18;69.74;100093.88;128211;1098;22373;-74
2021/07/06 00:34:10;;;;;;;20.60;18.60;;;;;;;19.14;69.66;100090.04;128221;1096;22377;-75
2021/07/06 00:36:40;;;;;;;21.53;19.45;;;;;;;19.13;69.64;100088.42;128204;1098;22388;-74
2021/07/06 00:39:10;;;;;;;19.23;17.30;;;;;;;19.11;69.80;100093.98;128218;1098;23020;-74
2021/07/06 00:41:40;;;;;;;19.90;18.10;;;;;;;19.09;69.64;100096.06;128185;1096;22366;-73
2021/07/06 00:44:20;;;;;;;20.13;18.00;;;;;;;19.06;69.69;100093.88;128184;1098;22681;-73
2021/07/06 00:46:50;;;;;;;20.07;18.27;;;;;;;19.01;69.83;100091.87;128208;1098;22388;-73
2021/07/06 00:49:20;;;;;;;22.63;18.63;;;;;;;19.01;69.89;100096.41;128211;1098;22400;-74
2021/07/06 00:51:49;;;;;;;19.70;17.83;;;;;;;18.98;69.69;100096.86;128199;1098;24508;-74
2021/07/06 00:54:19;;;;;;;20.87;18.67;;;;;;;18.95;69.84;100100.81;128190;1098;22385;-74
2021/07/06 00:56:48;;;;;;;19.53;17.83;;;;;;;18.94;69.63;100098.38;128223;1098;22413;-75
2021/07/06 00:59:21;;;;;;;22.68;20.40;;;;;;;18.92;69.70;100098.59;128000;1098;22366;-74
2021/07/06 01:01:50;;;;;;;20.00;18.28;;;;;;;18.90;69.64;100099.89;128182;1098;22657;-74
2021/07/06 01:04:21;;;;;;;19.80;17.75;;;;;;;18.87;69.76;100097.66;128218;1098;24605;-74
2021/07/06 01:06:50;;;;;;;20.50;18.80;;;;;;;18.81;69.82;100094.84;128225;1098;22414;-74
2021/07/06 01:09:20;;;;;;;21.20;19.33;;;;;;;18.75;69.33;100103.77;128170;1098;22385;-74
2021/07/06 01:11:50;;;;;;;21.23;19.13;;;;;;;18.70;70.37;100102.81;128208;1097;22384;-74
2021/07/06 01:14:20;;;;;;;20.70;18.70;;;;;;;18.67;70.07;100106.75;128156;1098;22388;-75
2021/07/06 01:16:49;;;;;;;21.40;19.40;;;;;;;18.65;70.09;100108.83;128175;1098;22366;-74
2021/07/06 01:19:19;;;;;;;21.18;19.48;;;;;;;18.60;69.55;100103.35;128168;1098;22366;-74
2021/07/06 01:21:48;;;;;;;22.65;20.58;;;;;;;18.52;70.12;100101.78;128166;1096;22385;-74
2021/07/06 01:24:18;;;;;;;22.15;20.08;;;;;;;18.47;70.52;100101.66;128194;1098;22629;-76
2021/07/06 01:26:53;;;;;;;20.10;18.30;;;;;;;18.44;70.01;100101.30;128181;1098;23135;-76
2021/07/06 01:29:23;;;;;;;21.28;19.38;;;;;;;18.43;70.65;100100.48;128209;1096;24332;-75
2021/07/06 01:31:53;;;;;;;20.52;18.50;;;;;;;18.44;70.56;100102.11;128205;1096;24511;-74
2021/07/06 01:34:23;;;;;;;20.52;18.40;;;;;;;18.45;70.67;100097.58;128282;1098;24206;-74
2021/07/06 01:36:53;;;;;;;19.38;17.68;;;;;;;18.44;70.15;100102.11;128332;1098;22370;-74
2021/07/06 01:39:22;;;;;;;19.45;17.55;;;;;;;18.45;70.66;100097.58;128245;1098;22389;-74
2021/07/06 01:41:52;;;;;;;19.65;17.75;;;;;;;18.46;70.64;100107.22;128205;1096;24249;-75
2021/07/06 01:44:27;;;;;;;19.45;17.85;;;;;;;18.44;70.72;100101.30;128176;1097;22365;-75
2021/07/06 01:46:56;;;;;;;18.45;16.50;;;;;;;18.41;70.44;100099.89;128196;1098;24538;-75
2021/07/06 01:49:26;;;;;;;18.13;16.43;;;;;;;18.39;70.24;100103.82;128358;1098;22366;-75
2021/07/06 01:51:56;;;;;;;18.38;16.85;;;;;;;18.35;70.38;100095.43;128225;1098;24512;-76
2021/07/06 01:54:25;;;;;;;18.13;16.55;;;;;;;18.33;70.62;100097.53;128179;1098;22384;-76
2021/07/06 01:56:55;;;;;;;19.07;17.27;;;;;;;18.30;70.50;100097.98;128220;1098;22385;-76
2021/07/06 01:59:24;;;;;;;19.47;17.70;;;;;;;18.27;70.75;100098.42;128207;1098;22822;-76
2021/07/06 02:01:54;;;;;;;18.73;17.03;;;;;;;18.20;70.30;100098.50;127941;1098;22377;-74
2021/07/06 02:04:30;;;;;;;18.23;16.50;;;;;;;18.19;70.49;100093.36;127970;1098;22375;-74
2021/07/06 02:06:59;;;;;;;18.13;16.53;;;;;;;18.21;70.96;100096.64;128032;1098;24203;-75
2021/07/06 02:09:29;;;;;;;19.20;17.40;;;;;;;18.21;70.95;100092.11;127979;1098;22380;-74
2021/07/06 02:11:59;;;;;;;17.43;15.80;;;;;;;18.20;70.63;100089.67;127931;1098;22407;-74
2021/07/06 02:14:28;;;;;;;18.93;17.03;;;;;;;18.17;70.70;100090.93;127964;1098;22376;-75
2021/07/06 02:16:57;;;;;;;17.80;15.90;;;;;;;18.13;71.02;100091.58;127993;1096;22375;-74
2021/07/06 02:19:27;;;;;;;17.88;16.18;;;;;;;18.11;70.56;100095.30;127988;1098;22392;-75
2021/07/06 02:21:57;;;;;;;17.08;15.53;;;;;;;18.11;70.98;100097.98;128222;1098;23932;-75
2021/07/06 02:24:26;;;;;;;18.40;16.60;;;;;;;18.10;70.72;100093.68;128265;1097;22365;-75
2021/07/06 02:26:58;;;;;;;18.80;17.30;;;;;;;18.06;70.55;100086.31;128243;1096;22360;-75
2021/07/06 02:29:28;;;;;;;17.67;15.97;;;;;;;18.02;70.40;100099.30;128101;1098;22366;-75
2021/07/06 02:31:57;;;;;;;16.97;15.57;;;;;;;17.98;70.82;100091.97;128230;1097;22388;-74
2021/07/06 02:34:27;;;;;;;17.73;16.23;;;;;;;17.93;70.54;100097.18;127940;1098;22378;-74
2021/07/06 02:36:57;;;;;;;16.95;15.35;;;;;;;17.92;70.70;100098.20;127901;1098;22400;-74
2021/07/06 02:39:27;;;;;;;17.95;16.45;;;;;;;17.90;70.91;100097.62;127893;1098;22376;-75
2021/07/06 02:41:56;;;;;;;17.43;15.90;;;;;;;17.88;71.13;100098.64;127947;1098;22398;-75
2021/07/06 02:44:26;;;;;;;19.33;17.83;;;;;;;17.90;70.83;100100.30;127927;1098;22376;-74
2021/07/06 02:46:55;;;;;;;18.60;17.00;;;;;;;17.81;71.03;100107.77;127916;1098;22379;-74
2021/07/06 02:49:25;;;;;;;19.00;17.30;;;;;;;17.73;71.13;100113.38;127939;1098;24421;-75
2021/07/06 02:51:54;;;;;;;20.38;18.65;;;;;;;17.68;71.11;100107.87;127925;1098;22430;-75
2021/07/06 02:54:24;;;;;;;20.53;18.77;;;;;;;17.66;71.40;100113.44;128172;1098;22369;-75
2021/07/06 02:56:53;;;;;;;19.60;17.85;;;;;;;17.59;71.01;100115.33;128188;1098;22388;-75
2021/07/06 02:59:23;;;;;;;18.25;16.83;;;;;;;17.54;71.39;100115.19;128199;1098;22372;-75
2021/07/06 03:01:52;;;;;;;19.10;17.40;;;;;;;17.50;71.43;100112.14;128165;1098;22366;-75
2021/07/06 03:04:22;;;;;;;20.00;18.05;;;;;;;17.50;71.69;100114.00;128236;1097;24262;-73
2021/07/06 03:06:52;;;;;;;17.93;16.40;;;;;;;17.49;71.94;100109.67;128189;1098;22398;-75
2021/07/06 03:09:21;;;;;;;18.78;16.90;;;;;;;17.49;72.06;100115.02;128190;1098;22373;-74
2021/07/06 03:11:51;;;;;;;17.83;16.20;;;;;;;17.49;71.75;100120.35;128173;1098;24511;-73
2021/07/06 03:14:20;;;;;;;18.70;17.13;;;;;;;17.48;72.00;100114.20;128143;1098;22356;-74
2021/07/06 03:16:50;;;;;;;20.30;18.40;;;;;;;17.41;71.77;100119.59;128095;1098;22382;-73
2021/07/06 03:19:19;;;;;;;19.63;17.93;;;;;;;17.36;72.08;100121.28;128203;1098;24262;-74
2021/07/06 03:21:49;;;;;;;21.05;18.90;;;;;;;17.33;72.57;100119.07;128242;1096;22370;-74
2021/07/06 03:24:19;;;;;;;19.25;17.30;;;;;;;17.33;72.24;100124.41;128131;1098;23264;-75
2021/07/06 03:26:48;;;;;;;17.33;15.83;;;;;;;17.36;72.55;100123.95;128142;1098;22397;-75
2021/07/06 03:29:18;;;;;;;19.15;17.55;;;;;;;17.38;72.26;100127.23;128166;1098;22388;-74
2021/07/06 03:31:47;;;;;;;19.43;17.68;;;;;;;17.40;72.38;100125.17;128237;1098;22730;-75
2021/07/06 03:34:17;;;;;;;18.53;16.83;;;;;;;17.44;72.49;100130.89;127888;1097;22367;-75
2021/07/06 03:36:46;;;;;;;18.25;15.95;;;;;;;17.47;72.40;100133.13;127921;1098;22926;-74
2021/07/06 03:39:16;;;;;;;19.35;17.55;;;;;;;17.52;72.42;100131.41;127924;1098;22367;-75
2021/07/06 03:41:46;;;;;;;19.50;17.60;;;;;;;17.54;72.17;100136.55;127926;1097;22367;-75
2021/07/06 03:44:15;;;;;;;21.55;19.45;;;;;;;17.52;71.95;100126.08;127904;1098;22369;-75
2021/07/06 03:46:45;;;;;;;19.80;18.00;;;;;;;17.53;72.24;100129.59;127945;1098;22376;-75
2021/07/06 03:49:14;;;;;;;20.00;18.05;;;;;;;17.56;71.99;100142.48;127932;1098;22779;-75
2021/07/06 03:51:44;;;;;;;18.80;17.08;;;;;;;17.62;72.16;100141.61;127899;1098;24521;-74
2021/07/06 03:54:14;;;;;;;18.65;17.05;;;;;;;17.70;71.86;100138.67;128184;1097;22369;-75
2021/07/06 03:56:43;;;;;;;17.75;15.93;;;;;;;17.78;71.97;100137.59;128163;1098;22399;-76
2021/07/06 03:59:13;;;;;;;18.48;16.60;;;;;;;17.86;72.07;100148.83;128160;1098;24518;-74
2021/07/06 04:01:43;;;;;;;19.23;17.45;;;;;;;17.93;71.59;100142.61;128173;1098;22373;-74
2021/07/06 04:04:12;;;;;;;16.50;15.00;;;;;;;18.02;71.51;100142.07;128128;1098;22366;-75
2021/07/06 04:06:42;;;;;;;17.48;15.65;;;;;;;18.11;71.39;100140.75;128192;1098;22369;-74
2021/07/06 04:09:11;;;;;;;16.83;15.18;;;;;;;18.24;71.19;100138.98;128156;1097;22367;-74
2021/07/06 04:11:41;;;;;;;13.90;12.60;;;;;;;18.34;70.92;100150.77;128146;1098;24193;-74
2021/07/06 04:14:10;;;;;;;14.95;13.58;;;;;;;18.43;70.60;100137.13;128171;1098;22365;-75
2021/07/06 04:16:40;;;;;;;14.08;12.73;;;;;;;18.51;70.54;100139.48;128141;1098;22727;-74
2021/07/06 04:19:10;;;;;;;14.90;12.30;;;;;;;18.62;70.24;100140.56;128159;1098;22439;-75
2021/07/06 04:21:39;;;;;;;13.80;12.60;;;;;;;18.70;69.85;100143.76;128175;1098;22385;-75
2021/07/06 04:24:09;;;;;;;13.45;12.15;;;;;;;18.78;69.82;100148.81;128156;1096;22475;-75
2021/07/06 04:26:38;;;;;;;15.03;13.48;;;;;;;18.91;69.43;100155.85;128144;1098;22362;-74
2021/07/06 04:29:08;;;;;;;16.35;14.60;;;;;;;18.99;69.19;100157.38;128184;1097;22413;-74
2021/07/06 04:31:37;;;;;;;16.43;14.80;;;;;;;19.03;68.88;100158.58;128133;1098;22369;-74
2021/07/06 04:34:07;;;;;;;15.45;13.90;;;;;;;19.05;68.91;100151.12;128141;1097;22437;-74
2021/07/06 04:36:36;;;;;;;14.70;13.40;;;;;;;19.10;68.85;100153.13;128216;1098;22381;-74
2021/07/06 04:39:06;;;;;;;14.83;13.53;;;;;;;19.13;68.73;100156.16;128176;1098;22366;-74
2021/07/06 04:41:36;;;;;;;14.10;12.78;;;;;;;19.20;69.17;100151.52;128208;1098;24275;-75
2021/07/06 04:44:06;;;;;;;15.10;13.58;;;;;;;19.30;68.30;100156.33;128198;1098;22366;-73
2021/07/06 04:46:35;;;;;;;13.95;12.58;;;;;;;19.40;68.08;100158.44;128162;1097;24517;-74
2021/07/06 04:49:05;;;;;;;13.83;12.43;;;;;;;19.54;67.68;100149.13;128252;1098;24352;-74
2021/07/06 04:51:35;;;;;;;15.38;11.83;;;;;;;19.68;67.89;100155.11;128204;1098;22377;-73
2021/07/06 04:54:05;;;;;;;13.30;11.83;;;;;;;19.83;67.04;100160.03;127981;1098;22391;-74
2021/07/06 04:56:34;;;;;;;13.58;12.00;;;;;;;20.00;66.47;100160.95;128175;1096;22377;-74
2021/07/06 04:59:04;;;;;;;11.03;9.63;;;;;;;20.16;66.57;100154.87;128191;1096;22391;-74
2021/07/06 05:01:33;;;;;;;13.05;11.73;;;;;;;20.30;66.02;100159.98;128213;1097;22401;-74
2021/07/06 05:04:03;;;;;;;14.15;12.83;;;;;;;20.47;65.89;100168.10;128200;1098;22385;-74
2021/07/06 05:06:32;;;;;;;14.00;12.05;;;;;;;20.66;65.40;100169.59;128133;1098;25072;-75
2021/07/06 05:09:02;;;;;;;13.85;11.63;;;;;;;20.84;65.33;100171.28;128149;1098;24981;-75
2021/07/06 05:11:32;;;;;;;15.35;12.25;;;;;;;21.02;64.95;100167.56;128230;1097;22387;-75
2021/07/06 05:14:01;;;;;;;15.35;9.68;;;;;;;21.19;64.48;100173.77;128126;1098;22401;-75
2021/07/06 05:16:31;;;;;;;10.38;9.48;;;;;;;21.35;63.80;100180.27;127939;1098;22381;-75
2021/07/06 05:19:01;;;;;;;13.68;8.03;;;;;;;21.50;62.18;100175.16;128188;1098;22449;-75
2021/07/06 05:21:31;;;;;;;9.30;8.50;;;;;;;21.64;63.03;100180.21;128204;1098;24287;-75
2021/07/06 05:24:11;;;;;;;8.85;6.83;;;;;;;21.82;61.86;100177.25;128197;1098;22433;-75
2021/07/06 05:26:41;;;;;;;;;;;;;;;21.92;61.04;100184.66;128262;1096;23737;-74
2021/07/06 05:29:10;;;;;;;7.25;4.60;;;;;;;22.05;60.99;100179.73;128221;1096;21263;-74
2021/07/06 05:31:41;;;;;;;6.48;3.95;;;;;;;22.26;60.38;100182.77;128212;1098;22462;-75
2021/07/06 05:34:11;;;;;;;4.60;3.55;;;;;;;22.46;59.58;100190.26;128224;1098;22375;-74
2021/07/06 05:36:40;;;;;;;5.70;4.43;;;;;;;22.78;59.42;100196.58;128242;1096;22383;-74
2021/07/06 05:39:10;;;;;;;8.58;7.78;;;;;;;23.15;58.92;100195.91;128209;1098;22373;-74
2021/07/06 05:41:39;;;;;;;17.10;4.53;;;;;;;23.54;57.51;100203.02;128171;1098;22379;-75
2021/07/06 05:44:09;;;;;;;7.58;4.80;;;;;;;23.95;56.74;100201.45;128198;1098;24557;-77
2021/07/06 05:46:39;;;;;;;6.78;4.30;;;;;;;24.33;55.28;100199.53;127977;1098;22383;-77
2021/07/06 05:49:09;;;;;;;4.68;3.95;;;;;;;24.67;55.00;100201.86;128149;1098;22376;-75
2021/07/06 05:51:38;;;;;;;7.33;3.60;;;;;;;25.09;53.74;100202.52;127980;1098;22397;-76
2021/07/06 05:54:08;;;;;;;9.70;8.78;;;;;;;25.52;52.93;100203.11;128190;1098;22375;-75
2021/07/06 05:56:38;;;;;;;6.50;5.90;;;;;;;26.05;51.89;100208.23;128209;1098;22398;-75
2021/07/06 05:59:08;;;;;;;7.25;3.30;;;;;;;26.56;50.83;100205.41;128209;1098;22413;-75
2021/07/06 06:01:37;;;;;;;7.60;3.23;;;;;;;26.91;49.45;100211.73;128186;1098;24269;-75
2021/07/06 06:04:07;;;;;;;3.55;2.40;;;;;;;27.30;48.19;100210.98;128152;1098;22396;-75
2021/07/06 06:06:36;;;;;;;6.68;3.05;;;;;;;27.58;47.22;100212.91;128220;1098;22382;-75
2021/07/06 06:09:06;;;;;;;2.33;2.10;;;;;;;27.91;46.68;100213.20;128225;1096;22398;-75
2021/07/06 06:11:35;;;;;;;5.40;2.60;;;;;;;28.14;45.33;100217.84;128232;1098;22402;-75
2021/07/06 06:14:05;;;;;;;5.00;2.05;;;;;;;28.38;44.29;100215.13;128179;1098;22378;-76
2021/07/06 06:16:34;;;;;;;6.03;2.85;;;;;;;28.72;44.57;100203.31;128218;1096;22818;-74
2021/07/06 06:19:04;;;;;;;3.23;2.63;;;;;;;29.19;43.66;100212.49;128232;1098;22380;-78
2021/07/06 06:21:34;;;;;;;5.65;2.60;;;;;;;29.48;42.49;100227.81;128215;1098;22360;-74
2021/07/06 06:24:04;;;;;;;5.40;2.55;;;;;;;29.62;41.78;100227.88;128238;1098;22396;-74
2021/07/06 06:26:34;;;;;;;4.50;2.65;;;;;;;29.86;41.41;100225.84;128240;1098;22376;-74
2021/07/06 06:29:04;;;;;;;7.20;2.03;;;;;;;30.23;40.97;100221.38;128196;1096;22378;-74
2021/07/06 06:31:33;;;;;;;5.75;2.53;;;;;;;30.35;39.42;100231.77;128243;1098;22397;-74
2021/07/06 06:34:03;;;;;;;5.30;2.58;;;;;;;30.59;39.42;100220.64;128287;1097;22383;-74
2021/07/06 06:36:32;;;;;;;4.28;2.80;;;;;;;30.75;39.07;100232.84;128246;1098;22490;-75
2021/07/06 06:39:04;;;;;;;9.90;4.05;;;;;;;30.85;38.49;100219.02;128177;1098;22408;-75
2021/07/06 06:41:34;;;;;;;5.53;2.70;;;;;;;30.85;37.71;100227.19;127942;1101;23027;-75
2021/07/06 06:44:04;;;;;;;10.93;3.58;;;;;;;30.86;37.67;100230.75;127947;1098;24572;-75
2021/07/06 06:46:33;;;;;;;4.27;2.90;;;;;;;30.88;38.31;100226.59;127929;1098;22404;-75
2021/07/06 06:49:04;;;;;;;4.03;2.97;;;;;;;31.10;37.82;100228.56;127929;1098;22404;-75
2021/07/06 06:51:34;;;;;;;4.23;2.53;;;;;;;31.43;37.50;100230.30;127963;1100;24277;-74
2021/07/06 06:54:04;;;;;;;4.95;2.53;;;;;;;31.51;36.27;100237.73;127938;1098;22364;-75
2021/07/06 06:56:35;;;;;;;3.13;2.30;;;;;;;31.62;36.03;100241.81;127944;1096;22481;-75
2021/07/06 06:59:07;;;;;;;8.18;2.30;;;;;;;31.61;35.86;100237.47;127979;1098;22841;-76
2021/07/06 07:01:37;;;;;;;3.95;1.80;;;;;;;31.58;35.01;100233.44;128213;1097;24224;-74
2021/07/06 07:04:07;;;;;;;6.80;1.90;;;;;;;31.64;34.69;100234.13;128304;1098;23145;-75
2021/07/06 07:06:37;;;;;;;;;;;;;;;31.85;34.72;100221.54;128077;1098;22373;-76
2021/07/06 07:09:09;;;;;;;3.67;2.90;;;;;;;32.03;34.21;100238.08;128238;1097;25026;-77
2021/07/06 07:11:38;;;;;;;6.07;2.70;;;;;;;31.99;34.46;100220.67;128272;1098;22375;-76
2021/07/06 07:14:09;;;;;;;4.68;2.50;;;;;;;31.84;34.71;100227.33;128325;1096;22442;-76
2021/07/06 07:16:39;;;;;;;3.43;3.08;;;;;;;31.90;34.99;100223.38;128289;1098;22402;-76
2021/07/06 07:19:08;;;;;;;5.58;2.48;;;;;;;32.13;34.52;100226.87;128289;1098;22378;-75
2021/07/06 07:21:49;;;;;;;4.18;2.15;;;;;;;32.30;34.38;100220.66;128308;1098;22388;-74
2021/07/06 07:24:19;;;;;;;3.57;2.10;;;;;;;32.22;33.66;100219.48;128289;1097;22377;-75
2021/07/06 07:26:49;;;;;;;4.73;1.85;;;;;;;32.22;33.45;100221.41;128412;1098;22379;-76
2021/07/06 07:29:19;;;;;;;;;;;;;;;32.22;32.61;100222.22;128378;1098;22376;-76
2021/07/06 07:31:49;;;;;;;2.73;2.00;;;;;;;32.22;33.57;100219.48;128244;1098;22993;-76
2021/07/06 07:34:18;;;;;;;5.37;2.40;;;;;;;32.11;33.15;100223.63;128037;1098;22372;-77
2021/07/06 07:36:48;;;;;;;4.17;3.27;;;;;;;32.01;33.77;100226.64;128023;1098;22377;-76
2021/07/06 07:39:18;;;;;;;6.70;3.30;;;;;;;32.20;33.80;100215.48;128208;1098;22515;-76
2021/07/06 07:41:47;;;;;;;2.90;2.50;;;;;;;32.42;33.02;100218.13;128177;1096;22375;-76
2021/07/06 07:44:17;;;;;;;7.63;2.40;;;;;;;32.49;32.64;100218.50;127993;1098;22399;-76
2021/07/06 07:46:47;;;;;;;5.40;1.93;;;;;;;32.75;32.73;100212.26;128203;1098;22402;-76
2021/07/06 07:49:16;;;;;;;5.00;1.28;;;;;;;32.84;32.37;100213.08;128189;1098;22375;-76
2021/07/06 07:51:46;;;;;;;4.25;1.65;;;;;;;32.81;31.92;100211.78;128317;1098;22369;-77
2021/07/06 07:54:16;;;;;;;5.53;1.90;;;;;;;32.86;31.62;100218.25;128100;1098;22376;-76
2021/07/06 07:56:46;;;;;;;2.80;1.90;;;;;;;33.03;31.08;100221.82;128173;1097;22372;-76
2021/07/06 07:59:16;;;;;;;2.13;1.50;;;;;;;32.81;31.34;100214.52;128228;1098;22833;-76
2021/07/06 08:01:45;;;;;;;3.08;1.18;;;;;;;32.77;31.39;100219.02;128229;1097;22379;-76
2021/07/06 08:04:14;;;;;;;3.30;1.20;;;;;;;32.77;31.14;100219.02;128173;1098;23212;-76
2021/07/06 08:06:44;;;;;;;4.60;1.28;;;;;;;32.81;31.54;100225.46;128232;1098;22402;-76
2021/07/06 08:09:13;;;;;;;2.47;1.30;;;;;;;33.06;30.59;100216.81;128239;1098;24515;-75
2021/07/06 08:11:43;;;;;;;2.35;1.10;;;;;;;33.28;30.06;100227.59;128168;1098;22372;-76
2021/07/06 08:14:13;;;;;;;3.30;1.33;;;;;;;33.32;29.48;100216.80;128038;1098;24269;-76
2021/07/06 08:16:42;;;;;;;2.07;0.93;;;;;;;33.48;29.29;100224.22;128203;1098;22398;-76
2021/07/06 08:19:12;;;;;;;2.00;0.83;;;;;;;33.46;29.25;100217.45;128236;1097;22882;-76
2021/07/06 08:21:41;;;;;;;3.40;1.13;;;;;;;33.46;28.79;100217.45;128214;1098;22377;-76
2021/07/06 08:24:11;;;;;;;2.53;1.10;;;;;;;33.17;29.25;100216.18;128342;1098;22971;-76
2021/07/06 08:26:41;;;;;;;2.78;0.98;;;;;;;33.31;29.29;100226.16;128266;1098;24339;-76
2021/07/06 08:29:11;;;;;;;2.25;1.50;;;;;;;33.29;29.26;100218.28;128038;1097;22369;-76
2021/07/06 08:31:40;;;;;;;6.98;1.23;;;;;;;33.47;29.63;100211.64;128315;1098;22720;-76
2021/07/06 08:34:10;;;;;;;3.33;1.08;;;;;;;33.85;28.80;100216.40;128214;1098;22420;-77
2021/07/06 08:36:44;;;;;;;2.95;1.20;;;;;;;34.05;28.59;100225.07;128279;1097;22876;-77
2021/07/06 08:39:13;;;;;;;2.03;1.00;;;;;;;34.09;28.61;100226.84;128197;1098;22401;-77
2021/07/06 08:41:43;;;;;;;4.70;1.43;;;;;;;34.20;28.26;100222.59;128242;1098;22388;-76
2021/07/06 08:44:15;;;;;;;2.95;1.43;;;;;;;33.86;28.52;100222.70;128196;1097;24250;-77
2021/07/06 08:46:45;;;;;;;2.35;1.10;;;;;;;33.43;28.76;100223.58;128051;1098;22428;-78
2021/07/06 08:49:19;;;;;;;2.33;1.95;;;;;;;33.00;29.42;100224.39;128022;1098;22401;-75
2021/07/06 08:51:50;;;;;;;3.83;1.95;;;;;;;32.61;30.25;100228.80;128241;1098;22381;-77
2021/07/06 08:54:21;;;;;;;2.40;1.50;;;;;;;32.67;30.94;100224.80;128225;1096;22781;-76
2021/07/06 08:56:53;;;;;;;;;;;;;;;32.75;29.33;100209.52;128064;1098;22390;-76
2021/07/06 08:59:42;;;;;;;1.85;1.10;;;;;;;32.65;30.99;100215.30;128272;1098;22984;-76
2021/07/06 09:02:13;;;;;;;4.50;1.20;;;;;;;32.67;30.77;100219.33;128203;1095;22703;-76
2021/07/06 09:04:50;;;;;;;2.28;1.40;;;;;;;32.74;30.83;100214.19;128209;1098;22381;-76
2021/07/06 09:07:22;;;;;;;5.45;4.58;;;;;;;32.97;30.82;100205.88;128101;1098;22485;-77
2021/07/06 09:09:52;;;;;;;3.63;1.70;;;;;;;33.20;30.14;100214.73;128355;1098;22380;-77
2021/07/06 09:12:34;;;;;;;5.80;1.90;;;;;;;33.39;29.72;100212.47;128237;1098;23003;-77
2021/07/06 09:15:33;;;;;;;5.15;1.68;;;;;;;33.55;29.62;100212.77;128017;1098;22372;-76
2021/07/06 09:18:17;;;;;;;4.13;1.63;;;;;;;33.42;29.31;100213.73;128155;1097;22382;-76
2021/07/06 09:20:58;;;;;;;2.68;1.50;;;;;;;33.51;29.80;100214.56;128277;1098;22821;-77
2021/07/06 09:23:40;;;;;;;2.03;1.10;;;;;;;33.52;29.36;100207.94;128221;1098;22372;-77
2021/07/06 09:26:17;;;;;;;5.43;2.50;;;;;;;33.79;28.91;100214.16;128234;1098;22415;-76
2021/07/06 09:28:57;;;;;;;3.70;1.35;;;;;;;33.69;28.62;100207.92;128296;1098;24219;-76
2021/07/06 09:31:33;;;;;;;1.95;1.30;;;;;;;33.08;29.11;100204.42;128258;1098;22831;-76
2021/07/06 09:34:12;;;;;;;6.38;1.30;;;;;;;32.70;30.31;100207.76;128372;1098;22379;-75
2021/07/06 09:36:45;;;;;;;3.15;1.15;;;;;;;32.98;29.96;100202.01;128309;1097;24524;-77
2021/07/06 09:39:26;;;;;;;2.58;0.88;;;;;;;33.33;29.70;100191.86;128259;1098;24281;-76
2021/07/06 09:42:04;;;;;;;4.45;2.38;;;;;;;33.40;28.97;100194.91;128304;1098;22398;-76
2021/07/06 09:44:36;;;;;;;4.70;1.50;;;;;;;33.33;28.81;100191.06;128308;1098;22406;-76
2021/07/06 09:47:12;;;;;;;4.00;1.40;;;;;;;33.39;29.31;100189.73;128181;1098;22477;-76
2021/07/06 09:49:52;;;;;;;3.23;1.15;;;;;;;33.67;28.74;100190.20;128247;1096;22395;-76
2021/07/06 09:52:22;;;;;;;;;;;;;;;33.93;28.89;100185.44;128042;1098;22828;-76
2021/07/06 09:54:54;;;;;;;3.03;1.53;;;;;;;34.07;28.09;100177.02;128254;1097;21389;-77
2021/07/06 09:57:28;;;;;;;3.68;1.00;;;;;;;34.07;28.02;100176.22;128236;1098;22773;-75
2021/07/06 10:00:11;;;;;;;2.57;1.60;;;;;;;34.04;27.82;100179.62;128206;1098;22485;-75
2021/07/06 10:02:43;;;;;;;4.28;2.35;;;;;;;33.59;27.77;100177.32;128233;1096;22375;-80
2021/07/06 10:05:18;;;;;;;1.50;1.00;;;;;;;33.24;28.58;100161.75;128054;1098;24985;-76
2021/07/06 10:07:47;;;;;;;3.55;1.58;;;;;;;33.21;28.72;100165.13;128213;1098;22394;-76
2021/07/06 10:10:19;;;;;;;1.57;0.90;;;;;;;33.11;28.31;100156.45;128187;1097;22383;-76
2021/07/06 10:12:50;;;;;;;2.50;1.48;;;;;;;32.96;28.46;100155.03;128188;1098;22399;-75
2021/07/06 10:15:23;;;;;;;3.00;1.20;;;;;;;32.99;28.96;100166.13;128236;1098;22388;-76
2021/07/06 10:17:53;;;;;;;1.65;1.18;;;;;;;33.04;28.29;100163.22;128221;1096;22379;-77
2021/07/06 10:20:28;;;;;;;2.55;1.43;;;;;;;32.82;28.54;100152.40;128231;1098;22381;-76
2021/07/06 10:23:01;;;;;;;2.68;1.93;;;;;;;32.77;28.91;100153.38;128189;1098;22484;-75
2021/07/06 10:25:34;;;;;;;3.58;1.45;;;;;;;32.85;28.43;100150.95;128219;1098;24248;-75
2021/07/06 10:28:07;;;;;;;2.98;1.50;;;;;;;32.83;28.55;100145.83;128229;1098;22395;-76
2021/07/06 10:30:47;;;;;;;2.48;1.50;;;;;;;32.64;28.49;100143.39;128304;1098;22391;-77
2021/07/06 10:33:32;;;;;;;2.25;1.25;;;;;;;32.28;29.08;100149.89;128441;1098;22379;-77
2021/07/06 10:36:04;;;;;;;6.18;1.80;;;;;;;31.92;29.63;100149.30;128216;1098;22383;-77
2021/07/06 10:38:33;;;;;;;4.10;1.43;;;;;;;31.71;29.72;100147.09;128325;1098;22391;-76
2021/07/06 10:41:13;;;;;;;3.70;2.40;;;;;;;31.43;29.96;100143.75;128303;1098;22378;-77
2021/07/06 10:43:45;;;;;;;5.00;3.25;;;;;;;31.27;30.51;100145.22;128338;1097;23238;-78
2021/07/06 10:46:15;;;;;;;3.70;2.40;;;;;;;31.22;30.48;100143.41;128234;1098;22395;-78
2021/07/06 10:49:10;;;;;;;;;;;;;;;30.98;30.68;100137.47;128259;1098;22394;-78
2021/07/06 10:51:39;;;;;;;6.60;2.00;;;;;;;30.95;30.92;100139.69;128222;1098;21263;-76
2021/07/06 10:54:16;;;;;;;6.30;1.50;;;;;;;30.73;31.19;100128.74;128391;1098;22402;-79
2021/07/06 10:57:13;;;;;;;1.83;1.40;;;;;;;30.46;31.60;100122.25;128357;1098;22477;-78
2021/07/06 10:59:51;;;;;;;2.33;1.20;;;;;;;30.24;31.78;100124.91;128338;1098;22377;-77
2021/07/06 11:02:27;;;;;;;9.18;2.13;;;;;;;30.22;32.47;100110.77;128247;1098;23154;-75
2021/07/06 11:04:58;;;;;;;3.68;1.30;;;;;;;30.33;32.12;100108.66;128324;1098;22372;-76
2021/07/06 11:07:39;;;;;;;2.78;1.53;;;;;;;30.25;32.25;100118.33;128154;1098;22376;-76
2021/07/06 11:10:10;;;;;;;13.13;2.83;;;;;;;30.09;32.47;100123.28;128321;1098;22388;-76
2021/07/06 11:12:45;;;;;;;3.13;1.05;;;;;;;29.99;32.49;100118.02;128358;1096;22376;-75
2021/07/06 11:15:27;;;;;;;1.65;1.28;;;;;;;29.89;32.68;100118.22;128312;1097;22376;-77
2021/07/06 11:18:09;;;;;;;4.98;1.60;;;;;;;29.75;32.89;100124.46;128216;1098;22406;-77
2021/07/06 11:20:47;;;;;;;1.90;1.50;;;;;;;29.54;33.18;100118.56;128259;1097;24262;-78
2021/07/06 11:23:34;;;;;;;2.65;1.25;;;;;;;29.46;33.82;100111.11;128231;1098;22394;-76
2021/07/06 11:26:07;;;;;;;3.00;1.25;;;;;;;29.36;33.28;100111.29;128049;1098;24269;-77
2021/07/06 11:28:51;;;;;;;7.33;1.48;;;;;;;29.31;33.45;100101.28;128183;1098;24518;-77
2021/07/06 11:31:21;;;;;;;4.08;1.20;;;;;;;29.23;33.64;100101.98;128227;1098;22398;-77